Aviosuperficie "San Mauro"

METAR LIPI TAF LIPI
-3 °C
°C
-
°C
1h
Âge
09:03:01
LT
08:03
UTC
0 ft

1.000

2.000

3.000

4.000

5.000

VFR
<?= Yii::t('app', 'Wind direction') ?> <?= Yii::t('app', 'of'); ?>
350°
17:22
Coucher de soleil
69%
Humidité
Cisaillement du vent
Fermé/neige
Portée visuelle RWY
Condition RWY
Visibilité vert.
Visibilité min.
CAVOK
Tendance
Correction
Rapport spécial
1037 hPa
QNH
METAR LIPI 080655Z 35002KT CAVOK M03/M08 Q1037 RMK SKC VIS MIN 9999 WIND THR06 33002KT WIND THR24 28003KT BLU
Aucun nuage
2 kt
2 kt
09:00
VFR
7 kt
10:00
VFR
7 kt
11:00
VFR
7 kt
12:00
VFR
7 kt
13:00
VFR
5 kt
14:00
VFR
5 kt
15:00
VFR
5 kt
10 km+
Vue
Non
Base cloud
2 kt
Vent
metar-taf.com/IT-0372

Metar-Taf.com

Décodeur visuel

Nous et des tiers suivons ton comportement Internet sur notre site Web à l'aide de cookies. Si tu continues, nous supposons que tu es d'accord avec notre Politique en matière de cookies.